sensor_id;sensor_type;location;lat;lon;timestamp;pressure;altitude;pressure_sealevel;temperature;humidity
37170;BME280;23062;13.952;100.608;2023-04-23T00:00:13;1008.72;;;33.04;62.12
37170;BME280;23062;13.952;100.608;2023-04-23T00:04:45;1008.72;;;33.06;62.23
37170;BME280;23062;13.952;100.608;2023-04-23T00:09:08;1008.76;;;33.11;62.10
37170;BME280;23062;13.952;100.608;2023-04-23T00:13:34;1008.77;;;33.09;62.20
37170;BME280;23062;13.952;100.608;2023-04-23T00:18:04;1008.83;;;33.11;62.20
37170;BME280;23062;13.952;100.608;2023-04-23T00:22:35;1008.90;;;33.12;62.57
37170;BME280;23062;13.952;100.608;2023-04-23T00:26:57;1008.98;;;33.10;62.76
37170;BME280;23062;13.952;100.608;2023-04-23T00:31:25;1008.99;;;33.16;64.53
37170;BME280;23062;13.952;100.608;2023-04-23T00:35:57;1009.02;;;33.17;63.72
37170;BME280;23062;13.952;100.608;2023-04-23T00:40:21;1009.10;;;33.17;63.04
37170;BME280;23062;13.952;100.608;2023-04-23T00:44:46;1009.11;;;33.10;63.21
37170;BME280;23062;13.952;100.608;2023-04-23T00:49:14;1009.12;;;33.10;62.99
37170;BME280;23062;13.952;100.608;2023-04-23T00:53:39;1009.14;;;33.09;63.18
37170;BME280;23062;13.952;100.608;2023-04-23T00:58:05;1009.26;;;33.14;62.89
37170;BME280;23062;13.952;100.608;2023-04-23T01:02:31;1009.32;;;33.16;63.00
37170;BME280;23062;13.952;100.608;2023-04-23T01:06:57;1009.40;;;33.21;62.63
37170;BME280;23062;13.952;100.608;2023-04-23T01:11:24;1009.40;;;33.21;62.66
37170;BME280;23062;13.952;100.608;2023-04-23T01:15:49;1009.44;;;33.27;62.23
37170;BME280;23062;13.952;100.608;2023-04-23T01:20:15;1009.48;;;33.29;62.21
37170;BME280;23062;13.952;100.608;2023-04-23T01:24:41;1009.55;;;33.26;62.20
37170;BME280;23062;13.952;100.608;2023-04-23T01:29:07;1009.56;;;33.33;61.61
37170;BME280;23062;13.952;100.608;2023-04-23T01:33:36;1009.59;;;33.35;61.53
37170;BME280;23062;13.952;100.608;2023-04-23T01:38:05;1009.55;;;33.36;61.57
37170;BME280;23062;13.952;100.608;2023-04-23T01:42:31;1009.57;;;33.42;61.19
37170;BME280;23062;13.952;100.608;2023-04-23T01:46:58;1009.66;;;33.44;61.24
37170;BME280;23062;13.952;100.608;2023-04-23T01:51:24;1009.74;;;33.52;61.05
37170;BME280;23062;13.952;100.608;2023-04-23T01:55:54;1009.79;;;33.55;59.92
37170;BME280;23062;13.952;100.608;2023-04-23T02:00:19;1009.79;;;33.58;59.27
37170;BME280;23062;13.952;100.608;2023-04-23T02:04:45;1009.78;;;33.61;59.37
37170;BME280;23062;13.952;100.608;2023-04-23T02:09:14;1009.70;;;33.60;57.75
37170;BME280;23062;13.952;100.608;2023-04-23T02:13:42;1009.65;;;33.62;58.00
37170;BME280;23062;13.952;100.608;2023-04-23T02:18:08;1009.70;;;33.67;57.86
37170;BME280;23062;13.952;100.608;2023-04-23T02:22:42;1009.66;;;33.66;56.74
37170;BME280;23062;13.952;100.608;2023-04-23T02:27:08;1009.69;;;33.70;56.32
37170;BME280;23062;13.952;100.608;2023-04-23T02:31:34;1009.66;;;33.70;55.62
37170;BME280;23062;13.952;100.608;2023-04-23T02:36:01;1009.65;;;33.74;55.46
37170;BME280;23062;13.952;100.608;2023-04-23T02:40:27;1009.69;;;33.80;55.97
37170;BME280;23062;13.952;100.608;2023-04-23T02:44:53;1009.66;;;33.83;56.15
37170;BME280;23062;13.952;100.608;2023-04-23T02:49:19;1009.71;;;33.88;56.19
37170;BME280;23062;13.952;100.608;2023-04-23T02:53:45;1009.73;;;33.90;56.08
37170;BME280;23062;13.952;100.608;2023-04-23T02:58:11;1009.67;;;33.95;56.05
37170;BME280;23062;13.952;100.608;2023-04-23T03:02:38;1009.64;;;34.02;56.22
37170;BME280;23062;13.952;100.608;2023-04-23T03:07:03;1009.68;;;34.05;54.80
37170;BME280;23062;13.952;100.608;2023-04-23T03:11:30;1009.67;;;34.09;54.46
37170;BME280;23062;13.952;100.608;2023-04-23T03:15:59;1009.68;;;34.12;53.47
37170;BME280;23062;13.952;100.608;2023-04-23T03:20:26;1009.66;;;34.15;53.81
37170;BME280;23062;13.952;100.608;2023-04-23T03:24:51;1009.64;;;34.21;54.25
37170;BME280;23062;13.952;100.608;2023-04-23T03:29:17;1009.60;;;34.23;54.48
37170;BME280;23062;13.952;100.608;2023-04-23T03:33:43;1009.60;;;34.25;53.55
37170;BME280;23062;13.952;100.608;2023-04-23T03:38:10;1009.58;;;34.27;53.60
37170;BME280;23062;13.952;100.608;2023-04-23T03:42:36;1009.62;;;34.30;53.16
37170;BME280;23062;13.952;100.608;2023-04-23T03:47:01;1009.62;;;34.34;53.02
37170;BME280;23062;13.952;100.608;2023-04-23T03:51:27;1009.62;;;34.37;52.99
37170;BME280;23062;13.952;100.608;2023-04-23T03:55:58;1009.61;;;34.39;52.81
37170;BME280;23062;13.952;100.608;2023-04-23T04:00:27;1009.53;;;34.42;52.62
37170;BME280;23062;13.952;100.608;2023-04-23T04:04:53;1009.46;;;34.46;52.56
37170;BME280;23062;13.952;100.608;2023-04-23T04:09:19;1009.40;;;34.50;52.32
37170;BME280;23062;13.952;100.608;2023-04-23T04:13:44;1009.35;;;34.50;52.58
37170;BME280;23062;13.952;100.608;2023-04-23T04:18:10;1009.41;;;34.51;53.13
37170;BME280;23062;13.952;100.608;2023-04-23T04:22:37;1009.24;;;34.47;52.80
37170;BME280;23062;13.952;100.608;2023-04-23T04:27:10;1009.22;;;34.52;51.99
37170;BME280;23062;13.952;100.608;2023-04-23T04:31:37;1009.24;;;34.56;51.05
37170;BME280;23062;13.952;100.608;2023-04-23T04:36:02;1009.14;;;34.57;51.68
37170;BME280;23062;13.952;100.608;2023-04-23T04:40:28;1009.10;;;34.57;51.46
37170;BME280;23062;13.952;100.608;2023-04-23T04:44:54;1009.04;;;34.64;51.00
37170;BME280;23062;13.952;100.608;2023-04-23T04:49:21;1009.02;;;34.62;51.44
37170;BME280;23062;13.952;100.608;2023-04-23T04:53:46;1008.94;;;34.66;51.37
37170;BME280;23062;13.952;100.608;2023-04-23T04:58:12;1008.89;;;34.69;51.41
37170;BME280;23062;13.952;100.608;2023-04-23T05:02:41;1008.79;;;34.68;51.67
37170;BME280;23062;13.952;100.608;2023-04-23T05:07:07;1008.83;;;34.74;50.90
37170;BME280;23062;13.952;100.608;2023-04-23T05:11:33;1008.71;;;34.76;50.55
37170;BME280;23062;13.952;100.608;2023-04-23T05:15:59;1008.69;;;34.76;50.36
37170;BME280;23062;13.952;100.608;2023-04-23T05:20:25;1008.53;;;34.76;49.92
37170;BME280;23062;13.952;100.608;2023-04-23T05:24:50;1008.51;;;34.79;50.12
37170;BME280;23062;13.952;100.608;2023-04-23T05:29:16;1008.38;;;34.78;50.37
37170;BME280;23062;13.952;100.608;2023-04-23T05:33:44;1008.36;;;34.83;49.83
37170;BME280;23062;13.952;100.608;2023-04-23T05:38:15;1008.36;;;34.85;49.46
37170;BME280;23062;13.952;100.608;2023-04-23T05:42:41;1008.27;;;34.86;49.81
37170;BME280;23062;13.952;100.608;2023-04-23T05:47:07;1008.17;;;34.94;49.54
37170;BME280;23062;13.952;100.608;2023-04-23T05:51:33;1008.06;;;34.94;49.75
37170;BME280;23062;13.952;100.608;2023-04-23T05:56:02;1007.93;;;34.97;49.73
37170;BME280;23062;13.952;100.608;2023-04-23T06:00:27;1007.84;;;34.97;49.77
37170;BME280;23062;13.952;100.608;2023-04-23T06:04:53;1007.77;;;34.94;49.79
37170;BME280;23062;13.952;100.608;2023-04-23T06:09:19;1007.70;;;34.94;49.91
37170;BME280;23062;13.952;100.608;2023-04-23T06:13:45;1007.56;;;34.92;49.44
37170;BME280;23062;13.952;100.608;2023-04-23T06:18:11;1007.44;;;34.92;49.58
37170;BME280;23062;13.952;100.608;2023-04-23T06:22:37;1007.32;;;34.91;49.70
37170;BME280;23062;13.952;100.608;2023-04-23T06:27:05;1007.27;;;34.92;48.91
37170;BME280;23062;13.952;100.608;2023-04-23T06:31:30;1007.22;;;34.95;48.78
37170;BME280;23062;13.952;100.608;2023-04-23T06:35:59;1007.09;;;34.98;48.81
37170;BME280;23062;13.952;100.608;2023-04-23T06:40:25;1007.13;;;34.98;49.17
37170;BME280;23062;13.952;100.608;2023-04-23T06:44:53;1007.00;;;34.99;49.11
37170;BME280;23062;13.952;100.608;2023-04-23T06:53:47;1006.94;;;35.04;48.94
37170;BME280;23062;13.952;100.608;2023-04-23T06:58:13;1006.73;;;35.03;48.98
37170;BME280;23062;13.952;100.608;2023-04-23T07:02:41;1006.66;;;35.03;49.07
37170;BME280;23062;13.952;100.608;2023-04-23T07:07:07;1006.65;;;35.03;49.15
37170;BME280;23062;13.952;100.608;2023-04-23T07:11:40;1006.56;;;35.04;49.33
37170;BME280;23062;13.952;100.608;2023-04-23T07:16:10;1006.51;;;35.05;49.46
37170;BME280;23062;13.952;100.608;2023-04-23T07:20:40;1006.42;;;35.10;49.86
37170;BME280;23062;13.952;100.608;2023-04-23T07:25:08;1006.45;;;35.12;49.85
37170;BME280;23062;13.952;100.608;2023-04-23T07:29:36;1006.31;;;35.10;49.57
37170;BME280;23062;13.952;100.608;2023-04-23T07:34:02;1006.36;;;35.11;49.16
37170;BME280;23062;13.952;100.608;2023-04-23T07:38:28;1006.34;;;35.11;49.07
37170;BME280;23062;13.952;100.608;2023-04-23T07:42:57;1006.14;;;35.08;49.05
37170;BME280;23062;13.952;100.608;2023-04-23T07:47:23;1006.16;;;35.13;48.51
37170;BME280;23062;13.952;100.608;2023-04-23T07:51:53;1006.01;;;35.10;48.43
37170;BME280;23062;13.952;100.608;2023-04-23T07:56:19;1006.04;;;35.12;47.99
37170;BME280;23062;13.952;100.608;2023-04-23T08:00:45;1005.89;;;35.14;47.89
37170;BME280;23062;13.952;100.608;2023-04-23T08:05:10;1005.92;;;35.15;48.03
37170;BME280;23062;13.952;100.608;2023-04-23T08:09:36;1005.92;;;35.16;48.00
37170;BME280;23062;13.952;100.608;2023-04-23T08:14:02;1005.83;;;35.17;48.01
37170;BME280;23062;13.952;100.608;2023-04-23T08:18:28;1005.89;;;35.16;47.87
37170;BME280;23062;13.952;100.608;2023-04-23T08:22:53;1005.93;;;35.19;47.53
37170;BME280;23062;13.952;100.608;2023-04-23T08:27:19;1005.87;;;35.22;47.61
37170;BME280;23062;13.952;100.608;2023-04-23T08:31:45;1005.92;;;35.22;47.37
37170;BME280;23062;13.952;100.608;2023-04-23T08:36:11;1005.94;;;35.25;47.41
37170;BME280;23062;13.952;100.608;2023-04-23T08:40:40;1005.84;;;35.24;46.59
37170;BME280;23062;13.952;100.608;2023-04-23T08:45:08;1005.72;;;35.26;46.45
37170;BME280;23062;13.952;100.608;2023-04-23T08:49:37;1005.65;;;35.26;46.76
37170;BME280;23062;13.952;100.608;2023-04-23T08:54:04;1005.53;;;35.26;46.98
37170;BME280;23062;13.952;100.608;2023-04-23T08:58:35;1005.35;;;35.24;47.33
37170;BME280;23062;13.952;100.608;2023-04-23T09:03:00;1005.12;;;35.23;46.96
37170;BME280;23062;13.952;100.608;2023-04-23T09:07:31;1005.02;;;35.24;46.78
37170;BME280;23062;13.952;100.608;2023-04-23T09:11:54;1004.99;;;35.24;46.84
37170;BME280;23062;13.952;100.608;2023-04-23T09:16:20;1004.95;;;35.23;47.07
37170;BME280;23062;13.952;100.608;2023-04-23T09:20:47;1005.01;;;35.23;46.91
37170;BME280;23062;13.952;100.608;2023-04-23T09:25:19;1005.08;;;35.21;47.05
37170;BME280;23062;13.952;100.608;2023-04-23T09:29:45;1004.96;;;35.23;46.78
37170;BME280;23062;13.952;100.608;2023-04-23T09:34:11;1004.91;;;35.21;47.00
37170;BME280;23062;13.952;100.608;2023-04-23T09:38:44;1004.87;;;35.20;46.83
37170;BME280;23062;13.952;100.608;2023-04-23T09:43:14;1004.81;;;35.16;46.74
37170;BME280;23062;13.952;100.608;2023-04-23T09:47:40;1004.71;;;35.18;46.74
37170;BME280;23062;13.952;100.608;2023-04-23T09:52:06;1004.79;;;35.16;46.52
37170;BME280;23062;13.952;100.608;2023-04-23T09:56:32;1004.86;;;35.13;46.27
37170;BME280;23062;13.952;100.608;2023-04-23T10:01:08;1004.93;;;35.15;46.25
37170;BME280;23062;13.952;100.608;2023-04-23T10:05:38;1004.79;;;35.07;46.22
37170;BME280;23062;13.952;100.608;2023-04-23T10:10:07;1004.66;;;35.09;46.01
37170;BME280;23062;13.952;100.608;2023-04-23T10:14:32;1004.58;;;35.07;46.17
37170;BME280;23062;13.952;100.608;2023-04-23T10:19:01;1004.69;;;35.07;46.23
37170;BME280;23062;13.952;100.608;2023-04-23T10:23:29;1004.82;;;35.05;46.12
37170;BME280;23062;13.952;100.608;2023-04-23T10:27:58;1004.79;;;35.05;46.70
37170;BME280;23062;13.952;100.608;2023-04-23T10:32:27;1004.77;;;35.06;46.95
37170;BME280;23062;13.952;100.608;2023-04-23T10:36:53;1005.00;;;35.05;47.04
37170;BME280;23062;13.952;100.608;2023-04-23T10:41:26;1005.04;;;35.02;46.82
37170;BME280;23062;13.952;100.608;2023-04-23T10:45:48;1005.16;;;35.00;46.40
37170;BME280;23062;13.952;100.608;2023-04-23T10:50:28;1005.23;;;35.02;46.28
37170;BME280;23062;13.952;100.608;2023-04-23T10:55:00;1005.23;;;34.97;46.28
37170;BME280;23062;13.952;100.608;2023-04-23T10:59:25;1005.23;;;34.94;46.38
37170;BME280;23062;13.952;100.608;2023-04-23T11:03:54;1005.29;;;34.90;46.21
37170;BME280;23062;13.952;100.608;2023-04-23T11:08:19;1005.25;;;34.89;46.79
37170;BME280;23062;13.952;100.608;2023-04-23T11:12:45;1005.10;;;34.81;47.44
37170;BME280;23062;13.952;100.608;2023-04-23T11:17:20;1005.00;;;34.77;47.56
37170;BME280;23062;13.952;100.608;2023-04-23T11:26:33;1004.87;;;34.73;47.72
37170;BME280;23062;13.952;100.608;2023-04-23T11:30:59;1004.97;;;34.68;47.68
37170;BME280;23062;13.952;100.608;2023-04-23T11:35:25;1005.12;;;34.64;48.04
37170;BME280;23062;13.952;100.608;2023-04-23T11:39:51;1005.31;;;34.64;47.90
37170;BME280;23062;13.952;100.608;2023-04-23T11:44:17;1005.30;;;34.62;47.68
37170;BME280;23062;13.952;100.608;2023-04-23T11:48:44;1005.38;;;34.60;47.75
37170;BME280;23062;13.952;100.608;2023-04-23T11:53:11;1005.52;;;34.58;47.84
37170;BME280;23062;13.952;100.608;2023-04-23T11:57:48;1005.58;;;34.54;48.16
37170;BME280;23062;13.952;100.608;2023-04-23T12:02:14;1005.76;;;34.54;48.09
37170;BME280;23062;13.952;100.608;2023-04-23T12:06:41;1005.81;;;34.50;48.19
37170;BME280;23062;13.952;100.608;2023-04-23T12:11:07;1005.89;;;34.48;48.18
37170;BME280;23062;13.952;100.608;2023-04-23T12:15:50;1005.92;;;34.45;48.51
37170;BME280;23062;13.952;100.608;2023-04-23T12:20:22;1005.98;;;34.44;48.78
37170;BME280;23062;13.952;100.608;2023-04-23T12:24:49;1005.97;;;34.34;48.93
37170;BME280;23062;13.952;100.608;2023-04-23T12:29:17;1006.17;;;34.38;49.17
37170;BME280;23062;13.952;100.608;2023-04-23T12:33:43;1006.30;;;34.34;49.35
37170;BME280;23062;13.952;100.608;2023-04-23T12:42:51;1006.58;;;34.32;49.52
37170;BME280;23062;13.952;100.608;2023-04-23T12:47:17;1006.83;;;34.28;49.71
37170;BME280;23062;13.952;100.608;2023-04-23T12:51:45;1006.88;;;34.29;49.81
37170;BME280;23062;13.952;100.608;2023-04-23T12:56:11;1007.04;;;34.30;50.18
37170;BME280;23062;13.952;100.608;2023-04-23T13:00:37;1007.07;;;34.28;50.29
37170;BME280;23062;13.952;100.608;2023-04-23T13:05:06;1007.03;;;34.25;50.55
37170;BME280;23062;13.952;100.608;2023-04-23T13:09:32;1007.12;;;34.28;50.56
37170;BME280;23062;13.952;100.608;2023-04-23T13:14:02;1007.20;;;34.28;50.53
37170;BME280;23062;13.952;100.608;2023-04-23T13:18:28;1007.24;;;34.26;50.78
37170;BME280;23062;13.952;100.608;2023-04-23T13:23:03;1007.25;;;34.28;50.81
37170;BME280;23062;13.952;100.608;2023-04-23T13:31:49;1007.49;;;34.23;51.06
37170;BME280;23062;13.952;100.608;2023-04-23T13:36:18;1007.60;;;34.22;51.21
37170;BME280;23062;13.952;100.608;2023-04-23T13:40:42;1007.60;;;34.21;51.56
37170;BME280;23062;13.952;100.608;2023-04-23T13:45:10;1007.64;;;34.22;51.83
37170;BME280;23062;13.952;100.608;2023-04-23T13:49:39;1007.85;;;34.22;52.09
37170;BME280;23062;13.952;100.608;2023-04-23T13:54:07;1008.15;;;34.24;52.08
37170;BME280;23062;13.952;100.608;2023-04-23T13:58:33;1008.18;;;34.22;52.20
37170;BME280;23062;13.952;100.608;2023-04-23T14:02:59;1008.21;;;34.18;52.40
37170;BME280;23062;13.952;100.608;2023-04-23T14:07:26;1008.37;;;34.21;52.51
37170;BME280;23062;13.952;100.608;2023-04-23T14:11:52;1008.43;;;34.20;52.66
37170;BME280;23062;13.952;100.608;2023-04-23T14:16:18;1008.39;;;34.15;52.87
37170;BME280;23062;13.952;100.608;2023-04-23T14:20:44;1008.37;;;34.16;52.94
37170;BME280;23062;13.952;100.608;2023-04-23T14:25:22;1008.28;;;34.17;53.10
37170;BME280;23062;13.952;100.608;2023-04-23T14:30:00;1008.25;;;34.16;53.28
37170;BME280;23062;13.952;100.608;2023-04-23T14:34:30;1008.43;;;34.12;53.53
37170;BME280;23062;13.952;100.608;2023-04-23T14:38:56;1008.53;;;34.08;53.99
37170;BME280;23062;13.952;100.608;2023-04-23T14:43:21;1008.63;;;34.10;54.28
37170;BME280;23062;13.952;100.608;2023-04-23T14:47:49;1008.81;;;34.07;54.70
37170;BME280;23062;13.952;100.608;2023-04-23T14:52:15;1008.88;;;34.07;55.00
37170;BME280;23062;13.952;100.608;2023-04-23T14:56:42;1008.98;;;34.11;55.07
37170;BME280;23062;13.952;100.608;2023-04-23T15:01:07;1008.99;;;34.26;54.91
37170;BME280;23062;13.952;100.608;2023-04-23T15:05:33;1008.98;;;34.38;54.43
37170;BME280;23062;13.952;100.608;2023-04-23T15:09:59;1008.94;;;34.42;54.37
37170;BME280;23062;13.952;100.608;2023-04-23T15:14:30;1008.97;;;34.46;54.44
37170;BME280;23062;13.952;100.608;2023-04-23T15:18:56;1008.98;;;34.47;54.38
37170;BME280;23062;13.952;100.608;2023-04-23T15:23:23;1009.03;;;34.49;54.38
37170;BME280;23062;13.952;100.608;2023-04-23T15:27:51;1009.12;;;34.50;54.54
37170;BME280;23062;13.952;100.608;2023-04-23T15:32:18;1009.10;;;34.50;54.60
37170;BME280;23062;13.952;100.608;2023-04-23T15:36:43;1009.09;;;34.47;54.75
37170;BME280;23062;13.952;100.608;2023-04-23T15:41:09;1009.09;;;34.51;54.71
37170;BME280;23062;13.952;100.608;2023-04-23T15:45:36;1009.02;;;34.52;54.50
37170;BME280;23062;13.952;100.608;2023-04-23T15:50:02;1009.03;;;34.53;54.67
37170;BME280;23062;13.952;100.608;2023-04-23T15:54:32;1009.05;;;34.54;54.67
37170;BME280;23062;13.952;100.608;2023-04-23T15:58:57;1009.06;;;34.53;54.75
37170;BME280;23062;13.952;100.608;2023-04-23T16:03:26;1009.10;;;34.52;54.70
37170;BME280;23062;13.952;100.608;2023-04-23T16:07:52;1009.10;;;34.53;54.81
37170;BME280;23062;13.952;100.608;2023-04-23T16:12:17;1009.03;;;34.52;54.90
37170;BME280;23062;13.952;100.608;2023-04-23T16:16:43;1009.12;;;34.51;54.89
37170;BME280;23062;13.952;100.608;2023-04-23T16:21:09;1009.13;;;34.52;54.87
37170;BME280;23062;13.952;100.608;2023-04-23T16:25:35;1009.24;;;34.50;54.99
37170;BME280;23062;13.952;100.608;2023-04-23T16:30:22;1009.25;;;34.53;54.97
37170;BME280;23062;13.952;100.608;2023-04-23T16:36:05;1009.24;;;34.56;55.05
37170;BME280;23062;13.952;100.608;2023-04-23T16:40:30;1009.24;;;34.53;55.20
37170;BME280;23062;13.952;100.608;2023-04-23T16:44:58;1009.31;;;34.51;55.29
37170;BME280;23062;13.952;100.608;2023-04-23T16:49:24;1009.46;;;34.49;55.50
37170;BME280;23062;13.952;100.608;2023-04-23T16:53:49;1009.40;;;34.50;55.38
37170;BME280;23062;13.952;100.608;2023-04-23T16:58:21;1009.44;;;34.47;55.16
37170;BME280;23062;13.952;100.608;2023-04-23T17:02:47;1009.49;;;34.47;55.36
37170;BME280;23062;13.952;100.608;2023-04-23T17:07:12;1009.44;;;34.46;55.51
37170;BME280;23062;13.952;100.608;2023-04-23T17:11:39;1009.39;;;34.44;55.78
37170;BME280;23062;13.952;100.608;2023-04-23T17:16:07;1009.39;;;34.45;55.79
37170;BME280;23062;13.952;100.608;2023-04-23T17:20:33;1009.46;;;34.44;55.84
37170;BME280;23062;13.952;100.608;2023-04-23T17:24:58;1009.48;;;34.44;55.86
37170;BME280;23062;13.952;100.608;2023-04-23T17:29:24;1009.41;;;34.43;55.51
37170;BME280;23062;13.952;100.608;2023-04-23T17:33:49;1009.31;;;34.45;55.53
37170;BME280;23062;13.952;100.608;2023-04-23T17:38:16;1009.43;;;34.42;55.64
37170;BME280;23062;13.952;100.608;2023-04-23T17:42:42;1009.37;;;34.40;55.67
37170;BME280;23062;13.952;100.608;2023-04-23T17:47:08;1009.39;;;34.42;55.73
37170;BME280;23062;13.952;100.608;2023-04-23T17:51:35;1009.32;;;34.42;55.90
37170;BME280;23062;13.952;100.608;2023-04-23T17:56:01;1009.39;;;34.42;55.94
37170;BME280;23062;13.952;100.608;2023-04-23T18:00:26;1009.35;;;34.41;55.87
37170;BME280;23062;13.952;100.608;2023-04-23T18:04:52;1009.37;;;34.43;55.96
37170;BME280;23062;13.952;100.608;2023-04-23T18:09:18;1009.27;;;34.41;55.95
37170;BME280;23062;13.952;100.608;2023-04-23T18:13:43;1009.19;;;34.42;56.08
37170;BME280;23062;13.952;100.608;2023-04-23T18:18:09;1009.12;;;34.41;55.98
37170;BME280;23062;13.952;100.608;2023-04-23T18:22:40;1009.06;;;34.41;56.02
37170;BME280;23062;13.952;100.608;2023-04-23T18:27:09;1009.03;;;34.40;55.98
37170;BME280;23062;13.952;100.608;2023-04-23T18:31:37;1009.03;;;34.39;55.89
37170;BME280;23062;13.952;100.608;2023-04-23T18:36:04;1009.02;;;34.38;55.85
37170;BME280;23062;13.952;100.608;2023-04-23T18:40:34;1009.04;;;34.39;55.87
37170;BME280;23062;13.952;100.608;2023-04-23T18:44:59;1009.06;;;34.40;55.80
37170;BME280;23062;13.952;100.608;2023-04-23T18:54:09;1008.95;;;34.39;55.94
37170;BME280;23062;13.952;100.608;2023-04-23T18:58:45;1008.95;;;34.37;55.97
37170;BME280;23062;13.952;100.608;2023-04-23T19:03:14;1008.91;;;34.35;56.01
37170;BME280;23062;13.952;100.608;2023-04-23T19:07:40;1008.86;;;34.34;55.80
37170;BME280;23062;13.952;100.608;2023-04-23T19:12:10;1008.87;;;34.36;55.85
37170;BME280;23062;13.952;100.608;2023-04-23T19:16:35;1008.84;;;34.35;55.87
37170;BME280;23062;13.952;100.608;2023-04-23T19:21:01;1008.84;;;34.33;55.94
37170;BME280;23062;13.952;100.608;2023-04-23T19:25:27;1008.87;;;34.34;55.99
37170;BME280;23062;13.952;100.608;2023-04-23T19:29:52;1008.92;;;34.32;55.96
37170;BME280;23062;13.952;100.608;2023-04-23T19:34:19;1008.91;;;34.31;55.95
37170;BME280;23062;13.952;100.608;2023-04-23T19:38:45;1008.91;;;34.30;56.00
37170;BME280;23062;13.952;100.608;2023-04-23T19:43:13;1008.88;;;34.29;56.12
37170;BME280;23062;13.952;100.608;2023-04-23T19:47:38;1008.78;;;34.28;56.13
37170;BME280;23062;13.952;100.608;2023-04-23T19:52:05;1008.71;;;34.25;56.17
37170;BME280;23062;13.952;100.608;2023-04-23T19:56:32;1008.74;;;34.26;56.30
37170;BME280;23062;13.952;100.608;2023-04-23T20:00:58;1008.78;;;34.26;56.23
37170;BME280;23062;13.952;100.608;2023-04-23T20:05:23;1008.83;;;34.25;56.33
37170;BME280;23062;13.952;100.608;2023-04-23T20:09:49;1008.81;;;34.25;56.37
37170;BME280;23062;13.952;100.608;2023-04-23T20:14:17;1008.81;;;34.25;56.33
37170;BME280;23062;13.952;100.608;2023-04-23T20:18:43;1008.78;;;34.25;56.34
37170;BME280;23062;13.952;100.608;2023-04-23T20:23:09;1008.80;;;34.23;56.41
37170;BME280;23062;13.952;100.608;2023-04-23T20:27:38;1008.80;;;34.24;56.58
37170;BME280;23062;13.952;100.608;2023-04-23T20:32:11;1008.81;;;34.20;56.67
37170;BME280;23062;13.952;100.608;2023-04-23T20:36:43;1008.85;;;34.20;56.66
37170;BME280;23062;13.952;100.608;2023-04-23T20:41:09;1008.83;;;34.19;56.71
37170;BME280;23062;13.952;100.608;2023-04-23T20:45:37;1008.84;;;34.17;56.69
37170;BME280;23062;13.952;100.608;2023-04-23T20:50:03;1008.83;;;33.98;57.31
37170;BME280;23062;13.952;100.608;2023-04-23T20:54:29;1008.89;;;33.76;58.47
37170;BME280;23062;13.952;100.608;2023-04-23T20:59:04;1008.92;;;33.59;59.18
37170;BME280;23062;13.952;100.608;2023-04-23T21:03:26;1008.94;;;33.55;59.42
37170;BME280;23062;13.952;100.608;2023-04-23T21:07:57;1009.04;;;33.43;59.89
37170;BME280;23062;13.952;100.608;2023-04-23T21:12:23;1009.11;;;33.37;60.30
37170;BME280;23062;13.952;100.608;2023-04-23T21:16:53;1009.18;;;33.37;60.30
37170;BME280;23062;13.952;100.608;2023-04-23T21:21:22;1009.23;;;33.37;60.42
37170;BME280;23062;13.952;100.608;2023-04-23T21:25:52;1009.28;;;33.32;60.91
37170;BME280;23062;13.952;100.608;2023-04-23T21:35:15;1009.32;;;33.23;61.39
37170;BME280;23062;13.952;100.608;2023-04-23T21:39:45;1009.35;;;33.27;61.36
37170;BME280;23062;13.952;100.608;2023-04-23T21:44:14;1009.42;;;33.26;61.42
37170;BME280;23062;13.952;100.608;2023-04-23T21:48:38;1009.47;;;33.23;61.58
37170;BME280;23062;13.952;100.608;2023-04-23T21:53:05;1009.55;;;33.25;61.49
37170;BME280;23062;13.952;100.608;2023-04-23T21:57:33;1009.62;;;33.20;61.56
37170;BME280;23062;13.952;100.608;2023-04-23T22:02:06;1009.80;;;33.22;61.48
37170;BME280;23062;13.952;100.608;2023-04-23T22:06:33;1009.90;;;33.18;61.55
37170;BME280;23062;13.952;100.608;2023-04-23T22:11:03;1010.02;;;33.15;61.75
37170;BME280;23062;13.952;100.608;2023-04-23T22:15:30;1010.10;;;33.14;61.95
37170;BME280;23062;13.952;100.608;2023-04-23T22:19:56;1010.09;;;33.11;62.10
37170;BME280;23062;13.952;100.608;2023-04-23T22:24:26;1010.23;;;33.11;62.17
37170;BME280;23062;13.952;100.608;2023-04-23T22:28:50;1010.25;;;33.09;62.43
37170;BME280;23062;13.952;100.608;2023-04-23T22:33:18;1010.27;;;33.03;62.82
37170;BME280;23062;13.952;100.608;2023-04-23T22:37:44;1010.31;;;33.04;62.98
37170;BME280;23062;13.952;100.608;2023-04-23T22:42:10;1010.48;;;33.02;63.25
37170;BME280;23062;13.952;100.608;2023-04-23T22:46:35;1010.57;;;33.02;63.11
37170;BME280;23062;13.952;100.608;2023-04-23T22:51:01;1010.62;;;32.97;62.88
37170;BME280;23062;13.952;100.608;2023-04-23T22:55:34;1010.64;;;33.02;62.36
37170;BME280;23062;13.952;100.608;2023-04-23T23:00:00;1010.72;;;33.03;61.86
37170;BME280;23062;13.952;100.608;2023-04-23T23:04:33;1010.77;;;32.96;61.58
37170;BME280;23062;13.952;100.608;2023-04-23T23:09:00;1010.83;;;32.96;61.33
37170;BME280;23062;13.952;100.608;2023-04-23T23:13:26;1010.92;;;33.04;61.02
37170;BME280;23062;13.952;100.608;2023-04-23T23:17:52;1010.96;;;33.03;60.92
37170;BME280;23062;13.952;100.608;2023-04-23T23:22:18;1011.05;;;33.02;60.79
37170;BME280;23062;13.952;100.608;2023-04-23T23:26:44;1011.15;;;32.95;60.79
37170;BME280;23062;13.952;100.608;2023-04-23T23:31:10;1011.26;;;32.96;60.65
37170;BME280;23062;13.952;100.608;2023-04-23T23:35:36;1011.40;;;32.94;60.60
37170;BME280;23062;13.952;100.608;2023-04-23T23:40:02;1011.47;;;32.90;60.57
37170;BME280;23062;13.952;100.608;2023-04-23T23:44:29;1011.50;;;32.93;60.63